createdAt,value
2018-09-11T00:00:13.086Z,17.73
2018-09-11T00:02:41.642Z,17.71
2018-09-11T00:05:10.173Z,17.68
2018-09-11T00:07:45.029Z,17.66
2018-09-11T00:10:13.597Z,17.64
2018-09-11T00:12:42.173Z,17.63
2018-09-11T00:15:10.630Z,17.58
2018-09-11T00:17:39.197Z,17.58
2018-09-11T00:20:07.717Z,17.58
2018-09-11T00:22:36.273Z,17.59
2018-09-11T00:25:04.891Z,17.58
2018-09-11T00:27:33.527Z,17.57
2018-09-11T00:30:02.868Z,17.55
2018-09-11T00:32:32.224Z,17.54
2018-09-11T00:35:00.874Z,17.50
2018-09-11T00:37:29.450Z,17.47
2018-09-11T00:39:58.689Z,17.45
2018-09-11T00:42:27.543Z,17.41
2018-09-11T00:44:56.070Z,17.38
2018-09-11T00:47:24.653Z,17.37
2018-09-11T00:49:53.359Z,17.35
2018-09-11T00:52:22.045Z,17.31
2018-09-11T00:54:50.631Z,17.30
2018-09-11T00:57:19.197Z,17.28
2018-09-11T00:59:47.869Z,17.27
2018-09-11T01:02:16.327Z,17.25
2018-09-11T01:04:44.750Z,17.22
2018-09-11T01:07:13.325Z,17.18
2018-09-11T01:09:42.717Z,17.16
2018-09-11T01:12:11.300Z,17.14
2018-09-11T01:14:39.864Z,17.13
2018-09-11T01:17:08.761Z,17.14
2018-09-11T01:19:37.429Z,17.13
2018-09-11T01:22:05.900Z,17.11
2018-09-11T01:24:34.373Z,17.11
2018-09-11T01:27:02.863Z,17.09
2018-09-11T01:29:32.478Z,17.08
2018-09-11T01:32:01.560Z,17.06
2018-09-11T01:34:30.472Z,17.04
2018-09-11T01:36:59.183Z,17.02
2018-09-11T01:39:27.660Z,17.00
2018-09-11T01:41:56.175Z,17.01
2018-09-11T01:44:24.697Z,16.99
2018-09-11T01:46:53.450Z,16.97
2018-09-11T01:49:21.929Z,16.96
2018-09-11T01:51:51.181Z,16.96
2018-09-11T01:54:19.660Z,16.96
2018-09-11T01:56:48.808Z,16.97
2018-09-11T01:59:17.258Z,16.96
2018-09-11T02:01:45.817Z,16.96
2018-09-11T02:04:15.320Z,16.99
2018-09-11T02:06:43.854Z,16.96
2018-09-11T02:09:13.544Z,16.95
2018-09-11T02:11:45.142Z,16.92
2018-09-11T02:14:13.652Z,16.93
2018-09-11T02:16:42.074Z,16.93
2018-09-11T02:19:10.766Z,16.91
2018-09-11T02:21:39.188Z,16.92
2018-09-11T02:24:07.850Z,16.89
2018-09-11T02:26:36.354Z,16.88
2018-09-11T02:29:05.823Z,16.85
2018-09-11T02:31:34.240Z,16.83
2018-09-11T02:34:02.655Z,16.82
2018-09-11T02:36:31.107Z,16.83
2018-09-11T02:38:59.562Z,16.83
2018-09-11T02:41:28.066Z,16.83
2018-09-11T02:43:56.716Z,16.85
2018-09-11T02:46:25.208Z,16.88
2018-09-11T02:48:53.630Z,16.90
2018-09-11T02:51:22.799Z,16.93
2018-09-11T02:53:51.337Z,16.98
2018-09-11T02:56:20.419Z,16.99
2018-09-11T02:58:48.983Z,17.00
2018-09-11T03:01:17.604Z,17.02
2018-09-11T03:03:46.044Z,17.04
2018-09-11T03:06:14.676Z,17.05
2018-09-11T03:08:43.083Z,17.08
2018-09-11T03:11:11.748Z,17.12
2018-09-11T03:13:40.194Z,17.12
2018-09-11T03:16:09.047Z,17.14
2018-09-11T03:18:37.487Z,17.16
2018-09-11T03:21:06.932Z,17.18
2018-09-11T03:23:35.654Z,17.21
2018-09-11T03:26:04.099Z,17.23
2018-09-11T03:28:32.676Z,17.22
2018-09-11T03:31:01.138Z,17.23
2018-09-11T03:33:29.550Z,17.24
2018-09-11T03:35:58.316Z,17.26
2018-09-11T03:38:26.734Z,17.26
2018-09-11T03:40:55.573Z,17.28
2018-09-11T03:43:24.240Z,17.27
2018-09-11T03:45:53.361Z,17.28
2018-09-11T03:48:22.371Z,17.29
2018-09-11T03:50:51.936Z,17.32
2018-09-11T03:53:21.431Z,17.31
2018-09-11T03:55:50.506Z,17.33
2018-09-11T03:58:19.242Z,17.35
2018-09-11T04:00:47.733Z,17.36
2018-09-11T04:03:16.368Z,17.36
2018-09-11T04:05:45.426Z,17.39
2018-09-11T04:08:13.980Z,17.39
2018-09-11T04:10:42.437Z,17.36
2018-09-11T04:13:11.507Z,17.37
2018-09-11T04:15:40.014Z,17.39
2018-09-11T04:18:08.504Z,17.42
2018-09-11T04:20:37.606Z,17.41
2018-09-11T04:23:06.804Z,17.42
2018-09-11T04:25:35.666Z,17.40
2018-09-11T04:28:04.164Z,17.39
2018-09-11T04:30:32.626Z,17.40
2018-09-11T04:33:01.304Z,17.42
2018-09-11T04:35:30.013Z,17.43
2018-09-11T04:37:58.441Z,17.41
2018-09-11T04:40:27.098Z,17.40
2018-09-11T04:42:55.777Z,17.42
2018-09-11T04:45:24.338Z,17.44
2018-09-11T04:47:53.357Z,17.45
2018-09-11T04:50:21.797Z,17.44
2018-09-11T04:52:51.022Z,17.42
2018-09-11T04:55:19.935Z,17.36
2018-09-11T04:57:48.515Z,17.31
2018-09-11T05:00:17.285Z,17.29
2018-09-11T05:02:45.863Z,17.24
2018-09-11T05:05:14.371Z,17.22
2018-09-11T05:07:43.010Z,17.16
2018-09-11T05:10:12.228Z,17.12
2018-09-11T05:12:40.657Z,17.07
2018-09-11T05:15:09.141Z,17.03
2018-09-11T05:17:37.673Z,17.03
2018-09-11T05:22:48.810Z,17.00
2018-09-11T05:25:18.096Z,16.98
2018-09-11T05:27:46.661Z,16.95
2018-09-11T05:30:15.118Z,16.93
2018-09-11T05:32:43.728Z,16.92
2018-09-11T05:35:12.256Z,16.91
2018-09-11T05:37:40.898Z,16.93
2018-09-11T05:40:09.378Z,16.91
2018-09-11T05:42:37.976Z,16.90
2018-09-11T05:45:07.177Z,16.89
2018-09-11T05:47:36.347Z,16.90
2018-09-11T05:50:05.956Z,16.89
2018-09-11T05:52:34.409Z,16.90
2018-09-11T05:55:03.900Z,16.92
2018-09-11T05:57:32.632Z,16.91
2018-09-11T06:00:01.259Z,16.91
2018-09-11T06:02:30.743Z,16.91
2018-09-11T06:04:59.434Z,16.94
2018-09-11T06:07:27.908Z,16.94
2018-09-11T06:09:56.508Z,16.96
2018-09-11T06:12:25.883Z,16.97
2018-09-11T06:14:54.373Z,16.97
2018-09-11T06:17:29.184Z,17.00
2018-09-11T06:19:58.572Z,17.06
2018-09-11T06:22:27.177Z,17.10
2018-09-11T06:24:55.769Z,17.13
2018-09-11T06:27:25.325Z,17.18
2018-09-11T06:29:53.975Z,17.21
2018-09-11T06:32:22.383Z,17.25
2018-09-11T06:34:51.080Z,17.27
2018-09-11T06:37:19.553Z,17.29
2018-09-11T06:39:48.065Z,17.33
2018-09-11T06:42:17.759Z,17.36
2018-09-11T06:44:46.985Z,17.39
2018-09-11T06:47:16.001Z,17.45
2018-09-11T06:49:44.612Z,17.48
2018-09-11T06:52:13.061Z,17.51
2018-09-11T06:54:41.955Z,17.53
2018-09-11T06:57:14.384Z,17.54
2018-09-11T06:59:43.541Z,17.56
2018-09-11T07:02:12.143Z,17.58
2018-09-11T07:04:40.783Z,17.60
2018-09-11T07:07:09.445Z,17.67
2018-09-11T07:09:39.080Z,17.70
2018-09-11T07:12:07.883Z,17.76
2018-09-11T07:14:36.668Z,17.83
2018-09-11T07:17:05.344Z,17.89
2018-09-11T07:19:33.821Z,17.95
2018-09-11T07:22:02.625Z,17.95
2018-09-11T07:24:31.122Z,17.96
2018-09-11T07:27:00.028Z,17.94
2018-09-11T07:29:28.684Z,17.95
2018-09-11T07:31:57.118Z,17.94
2018-09-11T07:34:26.288Z,17.97
2018-09-11T07:36:54.847Z,18.05
2018-09-11T07:39:23.418Z,18.11
2018-09-11T07:41:51.981Z,18.20
2018-09-11T07:44:20.469Z,18.28
2018-09-11T07:46:49.217Z,18.35
2018-09-11T07:49:17.710Z,18.43
2018-09-11T07:51:46.203Z,18.46
2018-09-11T07:54:14.849Z,18.48
2018-09-11T07:56:43.367Z,18.52
2018-09-11T07:59:12.128Z,18.57
2018-09-11T08:01:40.628Z,18.65
2018-09-11T08:04:09.110Z,18.71
2018-09-11T08:06:37.617Z,18.77
2018-09-11T08:09:10.561Z,18.81
2018-09-11T08:11:39.053Z,18.84
2018-09-11T08:14:07.705Z,18.92
2018-09-11T08:16:36.375Z,18.98
2018-09-11T08:19:05.022Z,19.05
2018-09-11T08:21:34.268Z,19.12
2018-09-11T08:24:02.822Z,19.20
2018-09-11T08:26:31.407Z,19.29
2018-09-11T08:29:00.158Z,19.38
2018-09-11T08:31:28.817Z,19.44
2018-09-11T08:33:57.445Z,19.52
2018-09-11T08:36:26.303Z,19.60
2018-09-11T08:38:54.912Z,19.66
2018-09-11T08:41:23.458Z,19.73
2018-09-11T08:43:52.063Z,19.79
2018-09-11T08:46:20.870Z,19.81
2018-09-11T08:48:49.600Z,19.89
2018-09-11T08:51:18.819Z,19.95
2018-09-11T08:53:47.271Z,20.00
2018-09-11T08:56:15.808Z,20.09
2018-09-11T08:58:44.537Z,20.17
2018-09-11T09:01:13.508Z,20.21
2018-09-11T09:03:42.131Z,20.29
2018-09-11T09:06:10.705Z,20.35
2018-09-11T09:08:39.244Z,20.43
2018-09-11T09:11:07.834Z,20.56
2018-09-11T09:13:36.491Z,20.66
2018-09-11T09:16:05.075Z,20.79
2018-09-11T09:18:33.589Z,21.01
2018-09-11T09:21:02.140Z,21.04
2018-09-11T09:23:30.617Z,21.03
2018-09-11T09:25:59.222Z,21.04
2018-09-11T09:28:27.819Z,21.08
2018-09-11T09:30:56.444Z,21.17
2018-09-11T09:33:25.028Z,21.28
2018-09-11T09:35:53.729Z,21.30
2018-09-11T09:38:22.289Z,21.36
2018-09-11T09:40:50.780Z,21.41
2018-09-11T09:43:19.445Z,21.55
2018-09-11T09:45:47.904Z,21.63
2018-09-11T09:48:16.832Z,21.70
2018-09-11T09:50:45.526Z,21.74
2018-09-11T09:53:14.540Z,21.80
2018-09-11T09:55:43.232Z,21.90
2018-09-11T09:58:12.338Z,22.02
2018-09-11T10:03:13.678Z,22.29
2018-09-11T10:05:42.285Z,22.43
2018-09-11T10:08:10.800Z,22.52
2018-09-11T10:10:39.424Z,22.65
2018-09-11T10:13:07.921Z,22.71
2018-09-11T10:15:36.676Z,22.77
2018-09-11T10:18:05.164Z,22.84
2018-09-11T10:20:33.712Z,22.86
2018-09-11T10:23:02.268Z,22.88
2018-09-11T10:25:30.817Z,22.93
2018-09-11T10:27:59.500Z,22.97
2018-09-11T10:30:28.025Z,23.06
2018-09-11T10:32:56.668Z,23.18
2018-09-11T10:35:25.197Z,23.30
2018-09-11T10:37:53.648Z,23.43
2018-09-11T10:40:22.355Z,23.56
2018-09-11T10:42:50.831Z,23.70
2018-09-11T10:45:20.446Z,23.77
2018-09-11T10:47:49.150Z,23.85
2018-09-11T10:50:17.922Z,23.91
2018-09-11T10:52:46.339Z,23.98
2018-09-11T10:55:14.825Z,24.07
2018-09-11T10:57:43.381Z,24.18
2018-09-11T11:00:11.966Z,24.31
2018-09-11T11:02:40.497Z,24.43
2018-09-11T11:05:09.717Z,24.53
2018-09-11T11:07:38.833Z,24.60
2018-09-11T11:10:07.941Z,24.70
2018-09-11T11:12:36.546Z,24.80
2018-09-11T11:15:05.209Z,24.93
2018-09-11T11:17:33.793Z,25.08
2018-09-11T11:20:02.380Z,25.25
2018-09-11T11:22:30.993Z,25.40
2018-09-11T11:24:59.509Z,25.50
2018-09-11T11:27:28.293Z,25.63
2018-09-11T11:29:56.770Z,25.72
2018-09-11T11:32:25.410Z,25.73
2018-09-11T11:34:54.063Z,25.77
2018-09-11T11:37:23.046Z,25.85
2018-09-11T11:39:51.431Z,25.99
2018-09-11T11:42:20.497Z,26.17
2018-09-11T11:44:48.912Z,26.32
2018-09-11T11:47:19.972Z,26.47
2018-09-11T11:49:49.977Z,26.69
2018-09-11T11:52:19.102Z,26.87
2018-09-11T11:54:47.897Z,26.94
2018-09-11T11:57:16.319Z,26.97
2018-09-11T11:59:45.230Z,26.99
2018-09-11T12:02:13.916Z,27.12
2018-09-11T12:04:42.714Z,27.18
2018-09-11T12:07:11.428Z,27.40
2018-09-11T12:09:40.532Z,27.65
2018-09-11T12:12:09.282Z,27.83
2018-09-11T12:14:37.771Z,28.00
2018-09-11T12:17:06.824Z,28.05
2018-09-11T12:19:35.260Z,28.18
2018-09-11T12:22:03.814Z,28.21
2018-09-11T12:24:32.393Z,28.36
2018-09-11T12:27:01.139Z,28.39
2018-09-11T12:29:29.617Z,28.41
2018-09-11T12:31:58.185Z,28.55
2018-09-11T12:34:26.858Z,28.61
2018-09-11T12:36:55.888Z,28.59
2018-09-11T12:39:24.451Z,28.68
2018-09-11T12:41:53.081Z,28.74
2018-09-11T12:44:21.588Z,28.81
2018-09-11T12:46:50.827Z,28.82
2018-09-11T12:49:20.141Z,28.79
2018-09-11T12:51:49.585Z,28.86
2018-09-11T12:54:18.828Z,29.02
2018-09-11T12:56:47.648Z,29.16
2018-09-11T12:59:16.385Z,29.23
2018-09-11T13:01:45.588Z,29.40
2018-09-11T13:04:14.335Z,29.61
2018-09-11T13:06:43.024Z,29.64
2018-09-11T13:09:11.650Z,29.54
2018-09-11T13:11:40.164Z,29.58
2018-09-11T13:14:08.805Z,29.68
2018-09-11T13:16:37.331Z,29.91
2018-09-11T13:19:05.780Z,30.00
2018-09-11T13:21:34.308Z,30.16
2018-09-11T13:24:02.941Z,30.43
2018-09-11T13:26:31.677Z,30.72
2018-09-11T13:29:00.220Z,31.23
2018-09-11T13:31:28.747Z,32.04
2018-09-11T13:33:57.239Z,32.75
2018-09-11T13:36:28.819Z,33.36
2018-09-11T13:38:57.297Z,33.89
2018-09-11T13:41:26.068Z,34.46
2018-09-11T13:43:54.493Z,35.00
2018-09-11T13:46:23.055Z,35.83
2018-09-11T13:48:51.578Z,36.19
2018-09-11T13:51:20.216Z,36.45
2018-09-11T13:53:48.669Z,36.91
2018-09-11T13:56:17.420Z,37.23
2018-09-11T13:58:45.878Z,37.53
2018-09-11T14:01:14.467Z,37.71
2018-09-11T14:03:43.612Z,37.78
2018-09-11T14:06:12.604Z,38.05
2018-09-11T14:08:41.227Z,37.96
2018-09-11T14:11:09.747Z,38.35
2018-09-11T14:13:38.561Z,38.52
2018-09-11T14:16:07.453Z,38.65
2018-09-11T14:18:36.432Z,38.63
2018-09-11T14:21:05.628Z,38.68
2018-09-11T14:23:35.180Z,38.69
2018-09-11T14:26:03.882Z,38.91
2018-09-11T14:28:32.616Z,38.84
2018-09-11T14:31:01.936Z,39.25
2018-09-11T14:33:30.680Z,39.62
2018-09-11T14:35:59.422Z,39.78
2018-09-11T14:38:28.174Z,39.58
2018-09-11T14:40:56.667Z,39.35
2018-09-11T14:43:25.161Z,39.22
2018-09-11T14:45:53.788Z,39.38
2018-09-11T14:48:22.332Z,39.33
2018-09-11T14:50:50.799Z,39.40
2018-09-11T14:53:19.451Z,39.71
2018-09-11T14:55:48.127Z,39.83
2018-09-11T14:58:17.658Z,40.00
2018-09-11T15:00:46.960Z,40.38
2018-09-11T15:03:15.423Z,40.42
2018-09-11T15:05:44.010Z,40.68
2018-09-11T15:08:12.497Z,40.95
2018-09-11T15:10:41.012Z,40.97
2018-09-11T15:13:09.513Z,40.87
2018-09-11T15:15:38.556Z,40.80
2018-09-11T15:18:07.119Z,40.29
2018-09-11T15:20:35.610Z,38.53
2018-09-11T15:23:05.121Z,37.17
2018-09-11T15:25:34.728Z,36.31
2018-09-11T15:28:03.937Z,35.67
2018-09-11T15:30:32.813Z,34.98
2018-09-11T15:33:01.367Z,34.19
2018-09-11T15:35:30.690Z,33.75
2018-09-11T15:37:59.317Z,33.59
2018-09-11T15:40:28.073Z,33.32
2018-09-11T15:42:56.665Z,32.90
2018-09-11T15:45:25.535Z,32.46
2018-09-11T15:47:54.040Z,32.22
2018-09-11T15:50:29.345Z,31.99
2018-09-11T15:52:58.002Z,31.68
2018-09-11T15:55:26.716Z,31.39
2018-09-11T15:57:55.463Z,31.23
2018-09-11T16:00:24.551Z,30.96
2018-09-11T16:02:53.251Z,30.61
2018-09-11T16:05:28.233Z,30.45
2018-09-11T16:07:56.780Z,30.40
2018-09-11T16:10:25.294Z,30.36
2018-09-11T16:12:54.421Z,30.33
2018-09-11T16:15:23.011Z,30.09
2018-09-11T16:17:51.476Z,29.96
2018-09-11T16:20:20.014Z,29.83
2018-09-11T16:22:48.606Z,29.66
2018-09-11T16:25:17.255Z,29.52
2018-09-11T16:27:45.813Z,29.33
2018-09-11T16:30:14.474Z,29.29
2018-09-11T16:32:42.840Z,29.23
2018-09-11T16:35:11.313Z,29.19
2018-09-11T16:37:40.059Z,29.16
2018-09-11T16:40:08.718Z,29.05
2018-09-11T16:42:38.066Z,28.93
2018-09-11T16:45:07.200Z,28.94
2018-09-11T16:47:35.833Z,28.85
2018-09-11T16:50:04.563Z,28.70
2018-09-11T16:52:33.305Z,28.65
2018-09-11T16:55:01.897Z,28.60
2018-09-11T16:57:30.513Z,28.55
2018-09-11T16:59:59.233Z,28.47
2018-09-11T17:02:27.883Z,28.44
2018-09-11T17:04:57.411Z,28.37
2018-09-11T17:07:25.925Z,28.19
2018-09-11T17:09:55.031Z,28.10
2018-09-11T17:12:26.828Z,28.03
2018-09-11T17:14:55.895Z,27.96
2018-09-11T17:17:24.812Z,27.90
2018-09-11T17:19:53.448Z,27.82
2018-09-11T17:22:43.454Z,27.77
2018-09-11T17:25:13.086Z,27.72
2018-09-11T17:27:56.553Z,27.64
2018-09-11T17:30:38.100Z,27.59
2018-09-11T17:33:08.694Z,27.49
2018-09-11T17:35:37.823Z,27.43
2018-09-11T17:38:11.573Z,27.36
2018-09-11T17:40:40.826Z,27.28
2018-09-11T17:43:20.339Z,27.22
2018-09-11T17:45:50.030Z,27.15
2018-09-11T17:48:19.402Z,27.10
2018-09-11T17:56:45.368Z,26.87
2018-09-11T17:59:14.310Z,26.83
2018-09-11T18:01:43.026Z,26.80
2018-09-11T18:04:14.351Z,26.70
2018-09-11T18:06:43.158Z,26.62
2018-09-11T18:09:12.695Z,26.55
2018-09-11T18:11:41.611Z,26.49
2018-09-11T18:14:10.658Z,26.42
2018-09-11T18:16:41.814Z,26.34
2018-09-11T18:19:16.579Z,26.25
2018-09-11T18:21:45.486Z,26.19
2018-09-11T18:24:14.735Z,26.10
2018-09-11T18:26:43.934Z,26.04
2018-09-11T18:29:13.429Z,25.98
2018-09-11T18:31:42.300Z,25.90
2018-09-11T18:34:10.975Z,25.85
2018-09-11T18:36:39.809Z,25.79
2018-09-11T18:39:10.285Z,25.73
2018-09-11T18:41:38.828Z,25.66
2018-09-11T18:44:07.432Z,25.58
2018-09-11T18:46:36.459Z,25.49
2018-09-11T18:49:05.280Z,25.44
2018-09-11T18:51:33.978Z,25.36
2018-09-11T18:54:02.498Z,25.27
2018-09-11T18:56:31.417Z,25.22
2018-09-11T18:59:03.097Z,25.13
2018-09-11T19:01:32.553Z,25.09
2018-09-11T19:04:01.345Z,25.03
2018-09-11T19:06:30.496Z,24.95
2018-09-11T19:09:00.909Z,24.88
2018-09-11T19:11:30.664Z,24.82
2018-09-11T19:14:00.918Z,24.75
2018-09-11T19:16:29.576Z,24.68
2018-09-11T19:18:58.244Z,24.62
2018-09-11T19:21:29.781Z,24.59
2018-09-11T19:23:58.950Z,24.53
2018-09-11T19:26:27.581Z,24.51
2018-09-11T19:28:56.229Z,24.46
2018-09-11T19:31:25.533Z,24.41
2018-09-11T19:33:58.499Z,24.38
2018-09-11T19:36:27.951Z,24.33
2018-09-11T19:38:57.220Z,24.27
2018-09-11T19:41:26.568Z,24.23
2018-09-11T19:43:55.679Z,24.18
2018-09-11T19:46:24.916Z,24.13
2018-09-11T19:48:55.027Z,24.09
2018-09-11T19:51:25.002Z,24.02
2018-09-11T19:53:53.671Z,23.99
2018-09-11T19:56:22.649Z,23.93
2018-09-11T19:58:51.931Z,23.93
2018-09-11T20:01:20.847Z,23.87
2018-09-11T20:03:49.844Z,23.84
2018-09-11T20:06:18.615Z,23.80
2018-09-11T20:08:47.296Z,23.72
2018-09-11T20:11:16.032Z,23.66
2018-09-11T20:13:45.199Z,23.65
2018-09-11T20:16:13.753Z,23.62
2018-09-11T20:18:42.720Z,23.58
2018-09-11T20:21:12.204Z,23.55
2018-09-11T20:23:41.078Z,23.52
2018-09-11T20:26:11.803Z,23.46
2018-09-11T20:28:47.125Z,23.42
2018-09-11T20:31:15.975Z,23.35
2018-09-11T20:33:45.667Z,23.33
2018-09-11T20:36:15.144Z,23.27
2018-09-11T20:38:44.036Z,23.25
2018-09-11T20:41:13.196Z,23.21
2018-09-11T20:43:48.154Z,23.19
2018-09-11T20:46:16.807Z,23.17
2018-09-11T20:48:45.641Z,23.13
2018-09-11T20:51:17.650Z,23.08
2018-09-11T20:53:46.751Z,23.05
2018-09-11T20:56:15.616Z,23.00
2018-09-11T20:58:44.272Z,22.96
2018-09-11T21:01:12.897Z,22.92
2018-09-11T21:03:41.749Z,22.88
2018-09-11T21:06:15.729Z,22.85
2018-09-11T21:08:44.417Z,22.80
2018-09-11T21:11:13.396Z,22.76
2018-09-11T21:13:42.110Z,22.74
2018-09-11T21:16:10.877Z,22.71
2018-09-11T21:18:39.760Z,22.69
2018-09-11T21:21:08.957Z,22.66
2018-09-11T21:23:37.757Z,22.61
2018-09-11T21:28:59.932Z,22.56
2018-09-11T21:31:28.775Z,22.52
2018-09-11T21:33:58.395Z,22.48
2018-09-11T21:36:26.892Z,22.47
2018-09-11T21:38:55.321Z,22.44
2018-09-11T21:41:24.030Z,22.41
2018-09-11T21:43:53.134Z,22.38
2018-09-11T21:46:21.626Z,22.34
2018-09-11T21:48:50.181Z,22.32
2018-09-11T21:51:18.702Z,22.30
2018-09-11T21:53:47.269Z,22.27
2018-09-11T21:56:15.801Z,22.25
2018-09-11T21:58:45.123Z,22.21
2018-09-11T22:01:19.241Z,22.18
2018-09-11T22:03:48.075Z,22.16
2018-09-11T22:08:44.413Z,22.10
2018-09-11T22:11:13.133Z,22.07
2018-09-11T22:13:42.160Z,22.06
2018-09-11T22:16:10.621Z,22.03
2018-09-11T22:18:39.239Z,21.98
2018-09-11T22:21:07.756Z,21.96
2018-09-11T22:23:36.411Z,21.93
2018-09-11T22:26:04.962Z,21.90
2018-09-11T22:28:33.499Z,21.87
2018-09-11T22:31:01.979Z,21.82
2018-09-11T22:33:30.781Z,21.80
2018-09-11T22:35:59.473Z,21.76
2018-09-11T22:38:28.160Z,21.73
2018-09-11T22:40:56.921Z,21.66
2018-09-11T22:43:25.773Z,21.64
2018-09-11T22:45:54.544Z,21.62
2018-09-11T22:48:22.994Z,21.61
2018-09-11T22:50:51.606Z,21.60
2018-09-11T22:53:20.352Z,21.60
2018-09-11T22:55:49.073Z,21.61
2018-09-11T22:58:17.633Z,21.63
2018-09-11T23:00:46.069Z,21.62
2018-09-11T23:03:14.591Z,21.62
2018-09-11T23:05:43.165Z,21.61
2018-09-11T23:08:11.722Z,21.61
2018-09-11T23:10:40.882Z,21.61
2018-09-11T23:13:09.816Z,21.62
2018-09-11T23:15:38.326Z,21.62
2018-09-11T23:18:06.834Z,21.63
2018-09-11T23:20:35.536Z,21.66
2018-09-11T23:23:04.133Z,21.69
2018-09-11T23:25:32.674Z,21.69
2018-09-11T23:28:01.180Z,21.69
2018-09-11T23:30:29.767Z,21.71
2018-09-11T23:32:58.356Z,21.73
2018-09-11T23:35:27.462Z,21.76
2018-09-11T23:37:56.070Z,21.74
2018-09-11T23:40:24.753Z,21.76
2018-09-11T23:42:53.443Z,21.76
2018-09-11T23:45:22.135Z,21.76
2018-09-11T23:47:50.976Z,21.72
2018-09-11T23:50:19.424Z,21.71
2018-09-11T23:52:47.869Z,21.67
2018-09-11T23:55:17.084Z,21.63
2018-09-11T23:57:45.853Z,21.56
